createdAt,value
2022-08-01T00:02:08.497Z,9.27
2022-08-01T00:05:14.531Z,8.75
2022-08-01T00:08:20.124Z,9.80
2022-08-01T00:11:25.345Z,11.40
2022-08-01T00:14:32.080Z,12.20
2022-08-01T00:17:38.016Z,17.13
2022-08-01T00:20:43.411Z,13.90
2022-08-01T00:23:48.617Z,15.90
2022-08-01T00:26:54.067Z,11.82
2022-08-01T00:30:11.137Z,16.83
2022-08-01T00:33:19.596Z,14.57
2022-08-01T00:36:24.723Z,17.23
2022-08-01T00:39:30.221Z,18.02
2022-08-01T00:42:39.071Z,15.75
2022-08-01T00:45:47.882Z,14.73
2022-08-01T00:48:52.728Z,18.63
2022-08-01T00:51:59.340Z,16.58
2022-08-01T00:55:05.171Z,20.83
2022-08-01T00:58:12.480Z,17.92
2022-08-01T01:01:21.633Z,20.50
2022-08-01T01:04:26.666Z,18.05
2022-08-01T01:07:37.677Z,18.23
2022-08-01T01:10:58.513Z,22.27
2022-08-01T01:14:11.941Z,19.10
2022-08-01T01:17:50.553Z,19.60
2022-08-01T01:20:54.419Z,19.42
2022-08-01T01:24:14.627Z,21.35
2022-08-01T01:27:26.216Z,21.48
2022-08-01T01:30:34.998Z,23.90
2022-08-01T01:33:47.309Z,17.05
2022-08-01T01:36:56.097Z,23.40
2022-08-01T01:40:03.729Z,22.73
2022-08-01T01:43:12.462Z,21.92
2022-08-01T01:46:23.647Z,26.98
2022-08-01T01:49:30.648Z,21.13
2022-08-01T01:52:38.905Z,21.75
2022-08-01T01:55:49.442Z,22.38
2022-08-01T01:58:58.803Z,20.10
2022-08-01T02:02:07.857Z,21.35
2022-08-01T02:05:14.808Z,28.33
2022-08-01T02:08:20.106Z,21.95
2022-08-01T02:11:25.814Z,34.05
2022-08-01T02:14:32.217Z,24.55
2022-08-01T02:17:44.478Z,24.08
2022-08-01T02:20:53.246Z,19.30
2022-08-01T02:24:06.066Z,17.15
2022-08-01T02:27:14.569Z,18.33
2022-08-01T02:30:21.208Z,17.60
2022-08-01T02:33:35.678Z,19.33
2022-08-01T02:36:41.230Z,14.73
2022-08-01T02:39:49.967Z,15.45
2022-08-01T02:42:57.740Z,11.93
2022-08-01T02:46:06.264Z,19.08
2022-08-01T02:49:14.246Z,14.82
2022-08-01T02:52:21.096Z,17.17
2022-08-01T02:55:27.040Z,16.67
2022-08-01T02:58:33.686Z,16.48
2022-08-01T03:01:41.853Z,18.20
2022-08-01T03:04:53.941Z,16.17
2022-08-01T03:08:03.770Z,20.23
2022-08-01T03:11:10.917Z,15.85
2022-08-01T03:14:17.921Z,18.95
2022-08-01T03:17:26.702Z,22.55
2022-08-01T03:20:35.231Z,18.15
2022-08-01T03:23:41.095Z,18.80
2022-08-01T03:26:48.205Z,21.50
2022-08-01T03:29:56.831Z,20.40
2022-08-01T03:33:02.774Z,16.88
2022-08-01T03:36:12.523Z,17.42
2022-08-01T03:39:20.556Z,15.10
2022-08-01T03:42:33.066Z,17.52
2022-08-01T03:45:42.370Z,11.05
2022-08-01T03:48:51.595Z,12.27
2022-08-01T03:52:00.669Z,9.85
2022-08-01T03:55:09.372Z,14.35
2022-08-01T03:58:15.719Z,15.00
2022-08-01T04:01:21.716Z,10.73
2022-08-01T04:04:27.446Z,13.57
2022-08-01T04:07:36.868Z,16.10
2022-08-01T04:10:42.164Z,16.15
2022-08-01T04:13:46.964Z,13.00
2022-08-01T04:16:52.406Z,11.48
2022-08-01T04:19:57.895Z,11.98
2022-08-01T04:23:04.355Z,21.50
2022-08-01T04:26:11.106Z,11.90
2022-08-01T04:29:18.652Z,14.27
2022-08-01T04:32:25.184Z,19.52
2022-08-01T04:36:02.523Z,18.90
2022-08-01T04:39:01.996Z,14.55
2022-08-01T04:42:08.884Z,17.50
2022-08-01T04:45:14.184Z,13.82
2022-08-01T04:48:22.593Z,14.65
2022-08-01T04:51:28.492Z,11.80
2022-08-01T04:54:38.513Z,15.60
2022-08-01T04:57:46.286Z,14.88
2022-08-01T05:00:51.771Z,14.80
2022-08-01T05:03:57.230Z,10.95
2022-08-01T05:07:03.509Z,12.77
2022-08-01T05:10:11.075Z,12.50
2022-08-01T05:13:16.784Z,11.57
2022-08-01T05:16:22.204Z,13.60
2022-08-01T05:19:27.318Z,16.38
2022-08-01T05:22:32.746Z,13.73
2022-08-01T05:25:58.029Z,13.65
2022-08-01T05:29:04.696Z,11.98
2022-08-01T05:32:10.334Z,12.85
2022-08-01T05:35:15.487Z,15.90
2022-08-01T05:38:20.834Z,14.20
2022-08-01T05:41:27.429Z,10.30
2022-08-01T05:44:33.260Z,15.13
2022-08-01T05:47:42.934Z,10.55
2022-08-01T05:50:48.758Z,18.00
2022-08-01T05:53:54.516Z,5.53
2022-08-01T05:57:02.635Z,4.63
2022-08-01T06:00:09.604Z,2.55
2022-08-01T06:03:17.654Z,2.00
2022-08-01T06:06:25.280Z,4.45
2022-08-01T06:09:31.691Z,2.33
2022-08-01T06:12:39.229Z,3.88
2022-08-01T06:15:44.432Z,7.55
2022-08-01T06:18:51.947Z,4.93
2022-08-01T06:25:06.309Z,6.60
2022-08-01T06:28:12.922Z,4.25
2022-08-01T06:31:18.187Z,3.47
2022-08-01T06:34:23.930Z,2.63
2022-08-01T06:37:30.855Z,3.78
2022-08-01T06:40:35.807Z,2.90
2022-08-01T06:43:43.386Z,2.80
2022-08-01T06:46:49.130Z,3.00
2022-08-01T06:49:54.943Z,3.20
2022-08-01T06:53:00.062Z,3.20
2022-08-01T06:56:06.058Z,8.25
2022-08-01T06:59:12.469Z,2.90
2022-08-01T07:02:17.274Z,3.90
2022-08-01T07:05:23.953Z,3.25
2022-08-01T07:08:29.334Z,2.92
2022-08-01T07:11:34.588Z,5.35
2022-08-01T07:14:41.231Z,2.42
2022-08-01T07:17:46.185Z,1.77
2022-08-01T07:20:52.937Z,1.65
2022-08-01T07:23:58.306Z,2.38
2022-08-01T07:27:23.966Z,1.55
2022-08-01T07:30:30.607Z,1.60
2022-08-01T07:33:48.579Z,1.42
2022-08-01T07:36:54.766Z,2.65
2022-08-01T07:40:00.210Z,2.47
2022-08-01T07:43:05.583Z,3.95
2022-08-01T07:46:11.884Z,2.63
2022-08-01T07:49:17.171Z,5.43
2022-08-01T07:52:22.585Z,5.32
2022-08-01T07:55:27.949Z,6.50
2022-08-01T07:58:33.018Z,8.63
2022-08-01T08:01:43.431Z,16.73
2022-08-01T08:04:49.288Z,14.35
2022-08-01T08:07:54.630Z,13.48
2022-08-01T08:11:00.125Z,12.18
2022-08-01T08:14:05.134Z,17.20
2022-08-01T08:17:11.954Z,13.20
2022-08-01T08:20:17.714Z,18.17
2022-08-01T08:23:42.028Z,17.48
2022-08-01T08:26:49.400Z,16.48
2022-08-01T08:29:57.516Z,19.38
2022-08-01T08:33:04.471Z,15.15
2022-08-01T08:36:18.585Z,14.70
2022-08-01T08:39:24.155Z,9.23
2022-08-01T08:42:29.476Z,12.10
2022-08-01T08:45:56.266Z,11.88
2022-08-01T08:49:03.112Z,9.13
2022-08-01T08:52:10.981Z,9.23
2022-08-01T08:55:18.550Z,9.60
2022-08-01T08:58:30.430Z,9.32
2022-08-01T09:01:37.474Z,10.55
2022-08-01T09:04:44.381Z,13.60
2022-08-01T09:07:49.206Z,11.65
2022-08-01T09:10:54.182Z,8.73
2022-08-01T09:14:08.573Z,9.77
2022-08-01T09:17:14.263Z,11.95
2022-08-01T09:20:26.038Z,7.13
2022-08-01T09:23:35.431Z,10.80
2022-08-01T09:26:40.747Z,7.30
2022-08-01T09:29:46.256Z,7.75
2022-08-01T09:32:56.767Z,8.35
2022-08-01T09:36:04.030Z,8.23
2022-08-01T09:39:14.809Z,8.88
2022-08-01T09:42:29.214Z,9.00
2022-08-01T09:45:41.916Z,7.82
2022-08-01T09:49:00.555Z,9.23
2022-08-01T09:52:15.532Z,8.15
2022-08-01T09:55:23.356Z,8.93
2022-08-01T09:58:28.738Z,8.48
2022-08-01T10:01:46.030Z,10.43
2022-08-01T10:04:55.798Z,11.05
2022-08-01T10:08:07.581Z,6.75
2022-08-01T10:11:14.133Z,12.25
2022-08-01T10:14:22.951Z,7.78
2022-08-01T10:17:50.669Z,5.57
2022-08-01T10:20:56.502Z,8.75
2022-08-01T10:24:07.540Z,8.70
2022-08-01T10:27:13.780Z,9.38
2022-08-01T10:30:23.394Z,7.95
2022-08-01T10:33:50.630Z,6.22
2022-08-01T10:36:55.412Z,7.95
2022-08-01T10:40:28.887Z,7.30
2022-08-01T10:43:31.022Z,4.60
2022-08-01T10:46:40.681Z,5.70
2022-08-01T10:49:57.138Z,6.22
2022-08-01T10:53:16.049Z,10.85
2022-08-01T10:56:40.957Z,5.35
2022-08-01T11:00:00.955Z,6.28
2022-08-01T11:03:07.149Z,8.05
2022-08-01T11:06:19.133Z,5.20
2022-08-01T11:09:37.387Z,7.68
2022-08-01T11:12:47.351Z,8.90
2022-08-01T11:16:27.501Z,5.95
2022-08-01T11:20:09.346Z,6.60
2022-08-01T11:23:18.044Z,6.05
2022-08-01T11:26:29.261Z,8.00
2022-08-01T11:29:35.113Z,3.65
2022-08-01T11:33:10.630Z,5.47
2022-08-01T11:36:55.771Z,6.25
2022-08-01T11:40:16.702Z,5.70
2022-08-01T11:43:23.919Z,5.53
2022-08-01T11:46:51.951Z,7.55
2022-08-01T11:49:58.815Z,4.13
2022-08-01T11:53:07.500Z,6.90
2022-08-01T11:56:12.802Z,6.18
2022-08-01T11:59:18.416Z,5.82
2022-08-01T12:02:30.614Z,7.10
2022-08-01T12:05:37.868Z,7.47
2022-08-01T12:08:50.250Z,8.77
2022-08-01T12:11:55.720Z,7.85
2022-08-01T12:15:03.489Z,5.75
2022-08-01T12:18:09.267Z,5.72
2022-08-01T12:21:14.699Z,7.18
2022-08-01T12:24:25.410Z,5.75
2022-08-01T12:27:33.775Z,2.92
2022-08-01T12:30:40.313Z,4.60
2022-08-01T12:33:45.570Z,5.00
2022-08-01T12:36:51.815Z,2.80
2022-08-01T12:39:59.294Z,3.47
2022-08-01T12:43:06.366Z,5.30
2022-08-01T12:46:17.050Z,3.75
2022-08-01T12:49:22.588Z,6.90
2022-08-01T12:52:29.335Z,5.72
2022-08-01T12:55:59.069Z,4.40
2022-08-01T12:59:21.848Z,2.38
2022-08-01T13:02:33.963Z,4.55
2022-08-01T13:05:51.217Z,4.25
2022-08-01T13:08:56.185Z,3.10
2022-08-01T13:12:10.929Z,2.90
2022-08-01T13:15:24.967Z,6.78
2022-08-01T13:18:33.306Z,4.20
2022-08-01T13:21:53.679Z,4.97
2022-08-01T13:25:11.772Z,4.50
2022-08-01T13:28:23.689Z,3.20
2022-08-01T13:31:34.673Z,2.95
2022-08-01T13:34:39.906Z,2.00
2022-08-01T13:37:45.485Z,4.03
2022-08-01T13:40:50.465Z,1.83
2022-08-01T13:43:58.065Z,3.08
2022-08-01T13:47:11.661Z,5.05
2022-08-01T13:50:22.175Z,4.75
2022-08-01T13:53:27.087Z,2.08
2022-08-01T13:56:33.229Z,2.28
2022-08-01T13:59:39.747Z,2.42
2022-08-01T14:02:44.865Z,3.25
2022-08-01T14:05:50.891Z,2.55
2022-08-01T14:09:18.042Z,2.83
2022-08-01T14:12:30.139Z,3.00
2022-08-01T14:15:39.824Z,4.07
2022-08-01T14:18:45.129Z,2.95
2022-08-01T14:21:50.410Z,3.67
2022-08-01T14:25:00.810Z,3.47
2022-08-01T14:28:07.072Z,4.07
2022-08-01T14:31:13.429Z,4.78
2022-08-01T14:34:18.343Z,2.65
2022-08-01T14:37:28.621Z,3.03
2022-08-01T14:40:34.580Z,3.67
2022-08-01T14:43:39.617Z,3.38
2022-08-01T14:46:57.584Z,2.55
2022-08-01T14:50:04.936Z,2.90
2022-08-01T14:53:10.069Z,4.25
2022-08-01T14:56:15.512Z,3.88
2022-08-01T14:59:21.885Z,1.58
2022-08-01T15:02:28.490Z,4.20
2022-08-01T15:05:34.287Z,3.85
2022-08-01T15:08:39.789Z,3.60
2022-08-01T15:11:44.875Z,3.15
2022-08-01T15:14:50.278Z,4.43
2022-08-01T15:17:56.678Z,3.40
2022-08-01T15:21:02.106Z,5.40
2022-08-01T15:24:08.313Z,4.00
2022-08-01T15:27:13.189Z,4.15
2022-08-01T15:30:23.673Z,2.33
2022-08-01T15:33:34.036Z,2.75
2022-08-01T15:36:43.682Z,6.07
2022-08-01T15:39:56.631Z,3.70
2022-08-01T15:43:02.367Z,3.33
2022-08-01T15:46:07.032Z,2.13
2022-08-01T15:49:16.881Z,2.60
2022-08-01T15:52:23.012Z,3.58
2022-08-01T15:55:28.759Z,3.42
2022-08-01T15:58:34.779Z,3.50
2022-08-01T16:01:40.535Z,2.53
2022-08-01T16:04:47.216Z,4.25
2022-08-01T16:07:56.995Z,7.13
2022-08-01T16:11:06.607Z,3.03
2022-08-01T16:14:11.640Z,1.92
2022-08-01T16:17:17.058Z,4.20
2022-08-01T16:20:23.499Z,3.20
2022-08-01T16:23:29.323Z,3.10
2022-08-01T16:26:34.604Z,5.63
2022-08-01T16:29:40.098Z,2.33
2022-08-01T16:32:47.976Z,1.92
2022-08-01T16:36:06.569Z,4.68
2022-08-01T16:39:12.007Z,2.10
2022-08-01T16:42:17.470Z,3.33
2022-08-01T16:45:22.983Z,2.00
2022-08-01T16:48:27.865Z,2.95
2022-08-01T16:51:40.739Z,3.60
2022-08-01T16:54:53.263Z,2.92
2022-08-01T16:57:59.228Z,4.40
2022-08-01T17:01:58.882Z,3.72
2022-08-01T17:04:29.571Z,4.18
2022-08-01T17:07:39.423Z,3.17
2022-08-01T17:10:44.735Z,4.20
2022-08-01T17:13:51.398Z,9.32
2022-08-01T17:17:01.096Z,7.93
2022-08-01T17:20:07.184Z,5.95
2022-08-01T17:23:14.527Z,4.25
2022-08-01T17:26:21.673Z,5.30
2022-08-01T17:29:27.758Z,2.60
2022-08-01T17:32:35.074Z,1.95
2022-08-01T17:35:40.356Z,2.10
2022-08-01T17:38:46.599Z,5.60
2022-08-01T17:41:51.662Z,5.97
2022-08-01T17:44:57.469Z,3.00
2022-08-01T17:48:05.585Z,2.83
2022-08-01T17:51:11.377Z,3.13
2022-08-01T17:54:20.487Z,2.53
2022-08-01T17:57:26.017Z,4.95
2022-08-01T18:00:31.204Z,4.53
2022-08-01T18:03:41.462Z,5.45
2022-08-01T18:06:58.840Z,8.88
2022-08-01T18:10:05.877Z,6.63
2022-08-01T18:13:18.309Z,5.97
2022-08-01T18:16:26.124Z,4.03
2022-08-01T18:19:31.429Z,10.10
2022-08-01T18:22:36.891Z,4.10
2022-08-01T18:25:44.171Z,2.22
2022-08-01T18:28:49.648Z,4.80
2022-08-01T18:31:59.459Z,6.43
2022-08-01T18:35:09.518Z,5.68
2022-08-01T18:38:20.576Z,3.97
2022-08-01T18:41:30.867Z,3.85
2022-08-01T18:44:36.865Z,8.00
2022-08-01T18:47:41.536Z,5.55
2022-08-01T18:50:46.436Z,7.20
2022-08-01T18:53:55.680Z,6.10
2022-08-01T18:57:02.175Z,6.55
2022-08-01T19:00:11.516Z,6.55
2022-08-01T19:03:16.790Z,4.63
2022-08-01T19:06:21.993Z,4.10
2022-08-01T19:09:27.546Z,5.30
2022-08-01T19:12:34.278Z,2.97
2022-08-01T19:15:41.744Z,4.65
2022-08-01T19:18:46.914Z,3.70
2022-08-01T19:21:56.358Z,1.80
2022-08-01T19:25:03.694Z,4.57
2022-08-01T19:28:10.340Z,2.60
2022-08-01T19:31:25.256Z,7.22
2022-08-01T19:34:30.597Z,4.22
2022-08-01T19:37:41.204Z,4.68
2022-08-01T19:40:47.077Z,2.97
2022-08-01T19:43:53.500Z,6.35
2022-08-01T19:46:59.487Z,3.80
2022-08-01T19:50:05.028Z,8.75
2022-08-01T19:53:12.522Z,4.78
2022-08-01T19:56:23.295Z,3.08
2022-08-01T19:59:33.145Z,2.92
2022-08-01T20:02:42.033Z,4.40
2022-08-01T20:05:46.974Z,6.78
2022-08-01T20:08:53.293Z,6.68
2022-08-01T20:11:58.616Z,3.80
2022-08-01T20:15:07.929Z,9.80
2022-08-01T20:18:20.537Z,5.77
2022-08-01T20:21:28.507Z,6.68
2022-08-01T20:24:41.109Z,4.72
2022-08-01T20:27:48.490Z,3.85
2022-08-01T20:30:57.045Z,5.75
2022-08-01T20:34:04.444Z,5.30
2022-08-01T20:37:12.572Z,2.70
2022-08-01T20:40:21.933Z,4.57
2022-08-01T20:43:30.610Z,3.45
2022-08-01T20:46:39.389Z,4.53
2022-08-01T20:49:45.367Z,10.77
2022-08-01T20:52:51.703Z,7.55
2022-08-01T20:56:04.821Z,13.27
2022-08-01T20:59:39.975Z,7.95
2022-08-01T21:03:02.671Z,8.45
2022-08-01T21:06:13.483Z,5.00
2022-08-01T21:09:23.790Z,10.60
2022-08-01T21:16:11.794Z,5.60
2022-08-01T21:19:21.603Z,6.77
2022-08-01T21:22:36.968Z,6.60
2022-08-01T21:25:43.652Z,4.30
2022-08-01T21:28:53.949Z,6.85
2022-08-01T21:32:15.930Z,5.40
2022-08-01T21:35:25.833Z,5.38
2022-08-01T21:38:34.000Z,8.03
2022-08-01T21:41:56.635Z,6.05
2022-08-01T21:45:10.866Z,5.93
2022-08-01T21:51:43.446Z,5.25
2022-08-01T21:55:01.496Z,4.70
2022-08-01T21:58:16.458Z,6.50
2022-08-01T22:01:33.247Z,5.53
2022-08-01T22:05:04.784Z,5.32
2022-08-01T22:08:11.882Z,5.53
2022-08-01T22:11:20.972Z,6.53
2022-08-01T22:14:28.246Z,10.27
2022-08-01T22:17:34.331Z,7.68
2022-08-01T22:20:40.457Z,6.47
2022-08-01T22:23:48.137Z,5.03
2022-08-01T22:26:56.719Z,5.47
2022-08-01T22:30:05.675Z,5.65
2022-08-01T22:33:16.680Z,7.90
2022-08-01T22:36:23.806Z,4.47
2022-08-01T22:39:30.293Z,7.78
2022-08-01T22:42:42.257Z,5.68
2022-08-01T22:45:53.537Z,6.85
2022-08-01T22:49:08.799Z,8.98
2022-08-01T22:52:19.474Z,8.93
2022-08-01T22:55:26.706Z,6.68
2022-08-01T22:58:53.735Z,6.85
2022-08-01T23:02:02.374Z,4.65
2022-08-01T23:05:09.852Z,6.10
2022-08-01T23:08:17.035Z,5.47
2022-08-01T23:11:24.575Z,8.32
2022-08-01T23:14:33.377Z,8.68
2022-08-01T23:17:39.266Z,5.05
2022-08-01T23:20:45.391Z,5.05
2022-08-01T23:23:51.504Z,2.78
2022-08-01T23:27:18.434Z,7.20
2022-08-01T23:30:26.719Z,5.90
2022-08-01T23:33:32.060Z,7.32
2022-08-01T23:36:39.025Z,5.93
2022-08-01T23:39:45.351Z,6.90
2022-08-01T23:42:53.195Z,6.63
2022-08-01T23:46:03.475Z,7.97
2022-08-01T23:49:10.090Z,5.47
2022-08-01T23:52:20.882Z,6.10
2022-08-01T23:55:37.546Z,7.07
2022-08-01T23:58:44.619Z,7.85
